Hlavní strana
METAR-TAF:

METAR-TAF

Letiště :

Gran Canaria, Španělsko

Letiště Gran Canaria

zeměpisná šířka: 27-56N, zeměpisná délka: 015-23W, výška: 23 m

Aktuální stav počasí

Zpráva byla vytvořena před 38 minutami, v 03:00 UTC
Severní vítr 13 kt
Teplota 16°C
Vlhkost vzduchu 68%
Tlak 1024 hPa
Viditelnost 10 km a více
Skoro jasno ve výšce 2500 ft

METAR: GCLP 230300Z 35013KT 9999 FEW025 16/10 Q1024 NOSIG

Čas: 03:38 (03:38 UTC)

Předpověď počasí

Zpráva byla vytvořena před 1 hodinou a 38 minutami, v 02:00 UTC
Předpověď platná od 23 v 03 UTC do 24 v 03 UTC
Severoseverovýchodní vítr 15 kt
Viditelnost 10 km a více
Žádná oblačnost pod 1500 m, nevyskytují se cumulonimby.
Dočasný
od 23 v 03 UTC do 23 v 10 UTC
Severní vítr 5 kt

TAF: GCLP 230200Z 2303/2403 03015KT CAVOK TX23/2314Z TN14/2306Z TEMPO 2303/2310 35005KT

Stav a předpovědi počasí z více než 4 000 letišť (zprávy METAR a TAF).

Červené a žluté tečky na mapě představují dostupné meteorologické stanice.

Když kurzor umístíte na tečku, zobrazí se název stanice.

Pak kliknutím zobrazíte stav a předpověď počasí.

Chcete-li změnit mapu, kliknutím na zelené tlačítko se znaménkem +mapu přiblížíte, kliknutím na zelené tlačítko se znaménkem – mapu oddálíte a kliknutím na zelené šipky přejdete na sousední mapy.


METAR-TAF: